Time;durP1;ratioP1;P1;durP2;ratioP2;P2;SDS_P1;SDS_P2;PMS_P1;PMS_P2;Temp;Humidity;BMP_temperature;BMP_pressure;BME280_temperature;BME280_humidity;BME280_pressure;Samples;Min_cycle;Max_cycle;Signal;HPM_P1;HPM_P2
2021/10/09 00:01:19;;;;;;;31.38;15.70;;;;;;;;;;4969279;28;20247;-57
2021/10/09 00:03:44;;;;;;;32.42;14.60;;;;;;;;;;4967219;28;20038;-57
2021/10/09 00:06:10;;;;;;;31.42;14.07;;;;;;;;;;4953308;28;20084;-57
2021/10/09 00:08:35;;;;;;;31.45;14.55;;;;;;;;;;4966946;28;20392;-57
2021/10/09 00:11:01;;;;;;;34.72;15.23;;;;;;;;;;4968119;28;20085;-57
2021/10/09 00:13:27;;;;;;;29.23;14.07;;;;;;;;;;4970206;28;20062;-57
2021/10/09 00:15:52;;;;;;;31.30;14.52;;;;;;;;;;4970059;28;20054;-57
2021/10/09 00:18:18;;;;;;;31.02;14.57;;;;;;;;;;4949978;28;20470;-57
2021/10/09 00:20:43;;;;;;;37.63;16.17;;;;;;;;;;4971789;28;20034;-58
2021/10/09 00:23:08;;;;;;;36.50;15.05;;;;;;;;;;4966578;28;20019;-57
2021/10/09 00:25:34;;;;;;;34.83;15.25;;;;;;;;;;4951698;28;20038;-57
2021/10/09 00:27:59;;;;;;;33.13;14.57;;;;;;;;;;4973879;28;20057;-57
2021/10/09 00:30:25;;;;;;;33.47;14.63;;;;;;;;;;4963110;28;20114;-57
2021/10/09 00:32:50;;;;;;;30.92;14.52;;;;;;;;;;4968351;28;20083;-57
2021/10/09 00:36:02;;;;;;;32.88;13.85;;;;;;;;;;5002649;23;20754;-80
2021/10/09 00:38:28;;;;;;;31.58;14.18;;;;;;;;;;5010552;28;20450;-79
2021/10/09 00:40:53;;;;;;;29.90;13.73;;;;;;;;;;5014526;28;20043;-80
2021/10/09 00:43:19;;;;;;;34.17;14.82;;;;;;;;;;4995431;28;20100;-79
2021/10/09 00:45:56;;;;;;;29.83;13.75;;;;;;;;;;4976986;28;20070;-81
2021/10/09 00:48:22;;;;;;;32.65;14.82;;;;;;;;;;4975821;28;20034;-80
2021/10/09 00:50:48;;;;;;;29.80;13.52;;;;;;;;;;4991969;28;20105;-81
2021/10/09 00:53:14;;;;;;;32.75;13.77;;;;;;;;;;4990022;28;20121;-80
2021/10/09 00:55:40;;;;;;;30.88;13.52;;;;;;;;;;4999771;28;20043;-80
2021/10/09 00:58:07;;;;;;;32.25;15.23;;;;;;;;;;4991714;28;20034;-81
2021/10/09 01:00:34;;;;;;;30.60;13.70;;;;;;;;;;4976014;28;20126;-82
2021/10/09 01:03:03;;;;;;;27.30;13.18;;;;;;;;;;4976806;28;20096;-80
2021/10/09 01:05:31;;;;;;;30.52;13.50;;;;;;;;;;4991434;28;20049;-82
2021/10/09 01:07:56;;;;;;;33.92;14.93;;;;;;;;;;4972185;28;20053;-81
2021/10/09 01:10:22;;;;;;;35.70;14.95;;;;;;;;;;4991902;28;20445;-81
2021/10/09 01:12:47;;;;;;;34.50;14.25;;;;;;;;;;4990642;28;20096;-81
2021/10/09 01:15:32;;;;;;;31.55;13.98;;;;;;;;;;4992951;28;20459;-80
2021/10/09 01:18:14;;;;;;;33.72;14.05;;;;;;;;;;4971262;28;20360;-81
2021/10/09 01:21:02;;;;;;;33.15;14.82;;;;;;;;;;4990422;28;20085;-81
2021/10/09 01:23:32;;;;;;;33.00;13.82;;;;;;;;;;4993785;28;20036;-81
2021/10/09 01:25:58;;;;;;;31.48;14.65;;;;;;;;;;4991099;28;20030;-80
2021/10/09 01:28:23;;;;;;;31.17;13.82;;;;;;;;;;4977274;28;20037;-82
2021/10/09 01:30:52;;;;;;;32.28;14.63;;;;;;;;;;4972815;28;20472;-81
2021/10/09 01:33:20;;;;;;;30.83;14.65;;;;;;;;;;4978845;28;20030;-82
2021/10/09 01:35:58;;;;;;;33.83;14.95;;;;;;;;;;4976989;28;20042;-82
2021/10/09 01:38:26;;;;;;;31.50;14.57;;;;;;;;;;4970679;28;20069;-81
2021/10/09 01:40:53;;;;;;;31.75;13.63;;;;;;;;;;4975215;28;20036;-82
2021/10/09 01:43:20;;;;;;;39.00;16.33;;;;;;;;;;4987409;28;20062;-82
2021/10/09 01:45:47;;;;;;;37.65;15.48;;;;;;;;;;4989858;28;20030;-81
2021/10/09 01:48:13;;;;;;;30.73;14.70;;;;;;;;;;4991463;28;20023;-82
2021/10/09 01:50:40;;;;;;;32.42;14.13;;;;;;;;;;4988466;28;20034;-79
2021/10/09 01:53:07;;;;;;;35.50;16.13;;;;;;;;;;4990480;28;20019;-80
2021/10/09 01:55:34;;;;;;;36.13;15.60;;;;;;;;;;4971252;28;20379;-81
2021/10/09 01:57:59;;;;;;;34.65;15.55;;;;;;;;;;4986483;28;20169;-78
2021/10/09 02:00:25;;;;;;;33.90;14.93;;;;;;;;;;4990323;28;20066;-80
2021/10/09 02:02:51;;;;;;;37.20;15.85;;;;;;;;;;4989300;28;20482;-83
2021/10/09 02:05:19;;;;;;;35.88;15.57;;;;;;;;;;4977757;28;20030;-83
2021/10/09 02:07:44;;;;;;;35.20;15.07;;;;;;;;;;4989760;28;20046;-82
2021/10/09 02:10:14;;;;;;;38.40;16.63;;;;;;;;;;4990821;28;20026;-80
2021/10/09 02:12:40;;;;;;;38.60;16.45;;;;;;;;;;4988320;28;20516;-79
2021/10/09 02:15:12;;;;;;;33.35;15.25;;;;;;;;;;4989374;28;20525;-80
2021/10/09 02:25:49;;;;;;;36.17;15.02;;;;;;;;;;4987614;28;20048;-80
2021/10/09 02:28:16;;;;;;;45.17;16.10;;;;;;;;;;4990638;28;20022;-80
2021/10/09 02:30:42;;;;;;;44.05;16.48;;;;;;;;;;4990909;28;20022;-80
2021/10/09 02:33:08;;;;;;;33.67;15.50;;;;;;;;;;4987307;28;20022;-79
2021/10/09 02:35:34;;;;;;;42.83;16.75;;;;;;;;;;4989905;28;20709;-81
2021/10/09 02:38:00;;;;;;;43.53;17.85;;;;;;;;;;4973310;28;20026;-80
2021/10/09 02:40:26;;;;;;;44.22;18.05;;;;;;;;;;4995267;28;20482;-80
2021/10/09 02:42:51;;;;;;;49.40;19.38;;;;;;;;;;4973650;28;20026;-80
2021/10/09 02:45:17;;;;;;;48.45;18.58;;;;;;;;;;4971548;28;21273;-81
2021/10/09 02:47:44;;;;;;;41.22;17.42;;;;;;;;;;4991511;28;20030;-80
2021/10/09 02:50:14;;;;;;;45.20;17.10;;;;;;;;;;4995975;28;20116;-81
2021/10/09 02:52:43;;;;;;;43.33;17.00;;;;;;;;;;4992251;28;20030;-80
2021/10/09 02:55:09;;;;;;;44.83;17.40;;;;;;;;;;4978597;28;20501;-81
2021/10/09 02:57:37;;;;;;;38.85;16.48;;;;;;;;;;4976719;28;20474;-80
2021/10/09 03:00:05;;;;;;;37.60;15.98;;;;;;;;;;4973391;28;20127;-81
2021/10/09 03:02:34;;;;;;;38.65;16.05;;;;;;;;;;4972944;28;20041;-81
2021/10/09 03:05:02;;;;;;;39.80;19.80;;;;;;;;;;4993750;28;20509;-80
2021/10/09 03:07:30;;;;;;;45.00;17.98;;;;;;;;;;4991399;28;20054;-81
2021/10/09 03:09:56;;;;;;;39.75;18.25;;;;;;;;;;4972382;28;20030;-80
2021/10/09 03:12:22;;;;;;;45.42;18.05;;;;;;;;;;4976245;28;20030;-80
2021/10/09 03:14:50;;;;;;;44.40;17.98;;;;;;;;;;4993363;28;20678;-80
2021/10/09 03:17:16;;;;;;;43.78;19.20;;;;;;;;;;4988045;28;20486;-81
2021/10/09 03:19:41;;;;;;;44.70;19.77;;;;;;;;;;4990467;28;20052;-81
2021/10/09 03:22:07;;;;;;;47.35;18.65;;;;;;;;;;4993869;28;20117;-79
2021/10/09 03:24:32;;;;;;;45.90;17.65;;;;;;;;;;4993691;28;20038;-81
2021/10/09 03:27:00;;;;;;;39.95;18.75;;;;;;;;;;4988964;28;20035;-81
2021/10/09 03:29:28;;;;;;;46.25;18.08;;;;;;;;;;4993627;28;20768;-82
2021/10/09 03:31:54;;;;;;;52.75;22.42;;;;;;;;;;4993700;28;20045;-81
2021/10/09 03:34:19;;;;;;;50.88;20.90;;;;;;;;;;4989877;28;20030;-80
2021/10/09 03:36:45;;;;;;;44.28;18.83;;;;;;;;;;4993935;28;20026;-80
2021/10/09 03:39:16;;;;;;;44.75;18.17;;;;;;;;;;4990005;28;20038;-80
2021/10/09 03:41:46;;;;;;;40.25;18.15;;;;;;;;;;4990273;28;20030;-80
2021/10/09 03:44:12;;;;;;;45.88;19.98;;;;;;;;;;4989284;28;20049;-80
2021/10/09 03:47:06;;;;;;;51.95;19.58;;;;;;;;;;4975893;28;20124;-80
2021/10/09 03:52:38;;;;;;;44.15;18.20;;;;;;;;;;4953882;28;20032;-80
2021/10/09 03:55:15;;;;;;;39.22;17.13;;;;;;;;;;4992237;28;20046;-82
2021/10/09 03:57:42;;;;;;;44.38;17.60;;;;;;;;;;4995644;28;20022;-80
2021/10/09 04:00:10;;;;;;;38.20;17.00;;;;;;;;;;4976940;28;20058;-80
2021/10/09 04:02:38;;;;;;;39.55;16.77;;;;;;;;;;4995442;28;20112;-80
2021/10/09 04:05:04;;;;;;;40.25;17.30;;;;;;;;;;4998945;28;20373;-81
2021/10/09 04:07:30;;;;;;;41.28;17.80;;;;;;;;;;4994790;28;20113;-80
2021/10/09 04:09:55;;;;;;;39.20;17.02;;;;;;;;;;4976602;28;20130;-81
2021/10/09 04:12:21;;;;;;;39.17;17.30;;;;;;;;;;4978207;28;20497;-81
2021/10/09 04:14:46;;;;;;;41.22;16.50;;;;;;;;;;4979572;28;20447;-80
2021/10/09 04:17:12;;;;;;;40.33;17.95;;;;;;;;;;4991909;28;20421;-80
2021/10/09 04:19:37;;;;;;;43.78;17.42;;;;;;;;;;4993453;28;20027;-81
2021/10/09 04:22:03;;;;;;;42.22;17.00;;;;;;;;;;4995876;28;20462;-78
2021/10/09 04:24:29;;;;;;;39.15;16.92;;;;;;;;;;4998197;28;20149;-81
2021/10/09 04:26:54;;;;;;;45.30;18.10;;;;;;;;;;4994850;28;20120;-80
2021/10/09 04:29:20;;;;;;;41.35;17.58;;;;;;;;;;4996419;28;20022;-80
2021/10/09 04:31:46;;;;;;;41.45;17.95;;;;;;;;;;4991835;28;20033;-80
2021/10/09 04:34:11;;;;;;;39.60;17.23;;;;;;;;;;4996546;28;20204;-80
2021/10/09 04:36:37;;;;;;;43.28;17.63;;;;;;;;;;4999429;28;20026;-80
2021/10/09 04:39:03;;;;;;;40.70;17.85;;;;;;;;;;4994662;28;20026;-82
2021/10/09 04:41:28;;;;;;;43.42;18.60;;;;;;;;;;4983383;28;20025;-80
2021/10/09 04:43:54;;;;;;;43.33;17.85;;;;;;;;;;4980986;28;20022;-80
2021/10/09 04:46:19;;;;;;;39.67;18.35;;;;;;;;;;4979439;28;20037;-79
2021/10/09 04:48:44;;;;;;;41.55;17.73;;;;;;;;;;4997699;28;20066;-78
2021/10/09 04:51:10;;;;;;;44.08;18.70;;;;;;;;;;4981007;28;20051;-82
2021/10/09 04:53:35;;;;;;;47.13;18.52;;;;;;;;;;4996472;28;20033;-82
2021/10/09 04:56:01;;;;;;;45.95;18.10;;;;;;;;;;4997168;28;20513;-82
2021/10/09 04:58:26;;;;;;;47.17;17.90;;;;;;;;;;4995690;28;20560;-82
2021/10/09 05:00:52;;;;;;;41.20;18.20;;;;;;;;;;4982976;28;20108;-82
2021/10/09 05:03:20;;;;;;;39.63;17.10;;;;;;;;;;4992639;28;20030;-81
2021/10/09 05:05:48;;;;;;;42.38;17.42;;;;;;;;;;4991871;28;20050;-82
2021/10/09 05:08:13;;;;;;;43.80;17.52;;;;;;;;;;4990225;28;20038;-80
2021/10/09 05:10:40;;;;;;;42.65;17.80;;;;;;;;;;4994681;28;20026;-80
2021/10/09 05:13:06;;;;;;;38.65;16.17;;;;;;;;;;4992673;28;20393;-79
2021/10/09 05:15:32;;;;;;;43.65;19.35;;;;;;;;;;4979141;28;20022;-80
2021/10/09 05:18:00;;;;;;;45.75;21.65;;;;;;;;;;4978900;28;20034;-79
2021/10/09 05:20:26;;;;;;;38.70;18.98;;;;;;;;;;4997379;28;20076;-78
2021/10/09 05:22:53;;;;;;;41.03;17.30;;;;;;;;;;4976885;28;20033;-79
2021/10/09 05:25:19;;;;;;;44.63;20.08;;;;;;;;;;4994189;28;20038;-79
2021/10/09 05:27:54;;;;;;;48.60;18.88;;;;;;;;;;4993545;28;20033;-79
2021/10/09 05:30:19;;;;;;;42.78;17.38;;;;;;;;;;4994598;28;20037;-78
2021/10/09 05:32:58;;;;;;;39.20;17.63;;;;;;;;;;4991779;28;20024;-79
2021/10/09 05:35:23;;;;;;;41.53;17.77;;;;;;;;;;4979980;28;20397;-78
2021/10/09 05:37:49;;;;;;;43.92;18.00;;;;;;;;;;4994683;28;20021;-79
2021/10/09 05:40:14;;;;;;;46.47;18.48;;;;;;;;;;4994695;28;20108;-77
2021/10/09 05:42:40;;;;;;;39.85;17.83;;;;;;;;;;4981133;28;20018;-78
2021/10/09 05:45:05;;;;;;;37.13;17.48;;;;;;;;;;4998226;28;20026;-79
2021/10/09 05:47:31;;;;;;;40.70;17.17;;;;;;;;;;4997402;28;20022;-77
2021/10/09 05:49:57;;;;;;;44.13;18.30;;;;;;;;;;4985601;28;20040;-78
2021/10/09 05:52:35;;;;;;;37.28;16.52;;;;;;;;;;5001857;28;20018;-77
2021/10/09 05:57:36;;;;;;;39.65;17.17;;;;;;;;;;4993854;28;20034;-78
2021/10/09 07:00:23;;;;;;;60.50;27.13;;;;;;;;;;4994554;28;20429;-80
2021/10/09 07:02:48;;;;;;;67.10;27.35;;;;;;;;;;4992106;28;20392;-79
2021/10/09 07:05:15;;;;;;;64.03;26.85;;;;;;;;;;4991282;28;20097;-79
2021/10/09 07:07:43;;;;;;;66.18;28.55;;;;;;;;;;4989755;28;20069;-78
2021/10/09 07:10:09;;;;;;;60.03;26.80;;;;;;;;;;4993476;28;20029;-79
2021/10/09 07:12:36;;;;;;;63.35;29.15;;;;;;;;;;4995531;28;20354;-78
2021/10/09 07:15:03;;;;;;;67.75;28.63;;;;;;;;;;4988344;28;20034;-77
2021/10/09 07:17:29;;;;;;;66.93;28.50;;;;;;;;;;4974953;28;20026;-78
2021/10/09 07:19:54;;;;;;;66.80;27.38;;;;;;;;;;4975637;28;20041;-78
2021/10/09 07:22:20;;;;;;;66.72;27.45;;;;;;;;;;4978701;28;20034;-79
2021/10/09 07:24:46;;;;;;;62.78;26.55;;;;;;;;;;4975003;28;20042;-79
2021/10/09 07:27:12;;;;;;;62.03;27.80;;;;;;;;;;4992826;28;20046;-79
2021/10/09 07:29:37;;;;;;;60.28;27.95;;;;;;;;;;4974979;28;20560;-80
2021/10/09 07:32:03;;;;;;;74.63;27.63;;;;;;;;;;4974188;28;20413;-79
2021/10/09 07:34:29;;;;;;;61.03;27.75;;;;;;;;;;4991762;28;20030;-80
2021/10/09 07:36:54;;;;;;;64.97;27.50;;;;;;;;;;4994762;28;20052;-80
2021/10/09 07:39:20;;;;;;;61.08;27.95;;;;;;;;;;4978764;28;20021;-79
2021/10/09 07:41:45;;;;;;;62.22;27.95;;;;;;;;;;4981990;28;20029;-79
2021/10/09 07:44:10;;;;;;;70.15;28.13;;;;;;;;;;4991052;28;20015;-78
2021/10/09 07:46:36;;;;;;;64.32;28.67;;;;;;;;;;4998753;28;20026;-80
2021/10/09 07:49:01;;;;;;;54.70;26.92;;;;;;;;;;4979654;28;20310;-79
2021/10/09 07:51:27;;;;;;;54.72;26.55;;;;;;;;;;4981245;28;20034;-81
2021/10/09 07:53:52;;;;;;;59.42;26.13;;;;;;;;;;4995248;28;20022;-79
2021/10/09 07:56:18;;;;;;;57.00;26.63;;;;;;;;;;4977310;28;20057;-78
2021/10/09 07:58:43;;;;;;;57.60;27.08;;;;;;;;;;4980172;28;20041;-78
2021/10/09 08:01:11;;;;;;;63.08;25.15;;;;;;;;;;4997201;28;20045;-79
2021/10/09 08:03:36;;;;;;;59.35;24.25;;;;;;;;;;4976186;28;20034;-77
2021/10/09 08:06:02;;;;;;;52.22;24.85;;;;;;;;;;4992603;28;20026;-79
2021/10/09 08:08:27;;;;;;;52.45;24.73;;;;;;;;;;4993307;28;20042;-79
2021/10/09 08:10:53;;;;;;;51.08;24.23;;;;;;;;;;4993704;28;20048;-78
2021/10/09 08:13:21;;;;;;;48.35;23.55;;;;;;;;;;4994686;28;20032;-80
2021/10/09 08:15:49;;;;;;;53.38;23.20;;;;;;;;;;5000953;28;20037;-79
2021/10/09 08:18:14;;;;;;;53.47;24.42;;;;;;;;;;5002245;28;20074;-79
2021/10/09 08:20:41;;;;;;;49.85;24.70;;;;;;;;;;4978211;28;20041;-79
2021/10/09 08:23:18;;;;;;;52.78;24.85;;;;;;;;;;5003123;28;20042;-79
2021/10/09 08:36:55;;;;;;;47.70;22.13;;;;;;;;;;4975444;28;20065;-78
2021/10/09 08:39:20;;;;;;;31.38;15.90;;;;;;;;;;4998096;28;20358;-76
2021/10/09 08:41:46;;;;;;;45.75;21.33;;;;;;;;;;4977387;28;20030;-78
2021/10/09 08:44:14;;;;;;;49.45;22.10;;;;;;;;;;4997030;28;20542;-77
2021/10/09 08:46:40;;;;;;;45.40;16.48;;;;;;;;;;4995017;28;20042;-77
2021/10/09 08:49:06;;;;;;;33.13;16.65;;;;;;;;;;4992393;28;20026;-78
2021/10/09 08:51:32;;;;;;;32.95;16.85;;;;;;;;;;4977499;28;20034;-79
2021/10/09 08:54:06;;;;;;;31.77;15.35;;;;;;;;;;4980913;28;20022;-79
2021/10/09 08:56:53;;;;;;;34.50;16.05;;;;;;;;;;4991432;28;20041;-78
2021/10/09 08:59:23;;;;;;;28.52;15.20;;;;;;;;;;4987927;28;20482;-80
2021/10/09 09:40:10;;;;;;;23.30;13.60;;;;;;;;;;4991261;28;20038;-78
2021/10/09 09:42:46;;;;;;;25.77;14.10;;;;;;;;;;4992266;28;20297;-79
2021/10/09 09:45:19;;;;;;;25.52;13.90;;;;;;;;;;4977262;28;20180;-79
2021/10/09 09:47:45;;;;;;;27.10;14.25;;;;;;;;;;4972205;28;20441;-77
2021/10/09 09:50:12;;;;;;;26.70;12.98;;;;;;;;;;4995598;28;20036;-78
2021/10/09 09:52:43;;;;;;;22.25;13.50;;;;;;;;;;4987321;28;20485;-78
2021/10/09 09:55:14;;;;;;;25.77;12.90;;;;;;;;;;4989453;28;20036;-77
2021/10/09 09:57:40;;;;;;;30.02;13.68;;;;;;;;;;4987327;28;20553;-80
2021/10/09 10:00:11;;;;;;;24.23;14.30;;;;;;;;;;4989248;28;20037;-81
2021/10/09 10:02:40;;;;;;;23.48;13.60;;;;;;;;;;4990973;28;20098;-79
2021/10/09 10:05:07;;;;;;;29.50;14.15;;;;;;;;;;4974895;28;20116;-77
2021/10/09 10:07:35;;;;;;;25.58;13.05;;;;;;;;;;4989064;28;20030;-76
2021/10/09 10:10:00;;;;;;;27.48;14.07;;;;;;;;;;4987976;28;20137;-78
2021/10/09 10:12:26;;;;;;;30.13;16.23;;;;;;;;;;4973742;28;20558;-77
2021/10/09 10:14:53;;;;;;;24.33;14.15;;;;;;;;;;4987195;28;20080;-77
2021/10/09 10:17:41;;;;;;;22.23;13.18;;;;;;;;;;4987903;28;20397;-77
2021/10/09 10:20:11;;;;;;;25.63;13.57;;;;;;;;;;4992048;28;20093;-78
2021/10/09 10:22:40;;;;;;;22.70;14.13;;;;;;;;;;4988906;28;20030;-78
2021/10/09 10:25:24;;;;;;;26.50;14.13;;;;;;;;;;4975590;28;20053;-78
2021/10/09 10:28:24;;;;;;;25.38;14.25;;;;;;;;;;4972778;28;20022;-77
2021/10/09 10:31:04;;;;;;;25.80;13.32;;;;;;;;;;4984911;28;20046;-77
2021/10/09 10:33:42;;;;;;;24.25;14.27;;;;;;;;;;4997721;28;20462;-78
2021/10/09 10:36:11;;;;;;;24.35;14.15;;;;;;;;;;4980131;28;20029;-78
2021/10/09 10:38:46;;;;;;;20.95;12.77;;;;;;;;;;4990631;28;20030;-80
2021/10/09 10:41:17;;;;;;;29.08;13.70;;;;;;;;;;4995409;28;20061;-81
2021/10/09 10:43:55;;;;;;;24.30;13.82;;;;;;;;;;4989736;28;20030;-80
2021/10/09 10:46:29;;;;;;;23.15;12.27;;;;;;;;;;4993980;28;20030;-78
2021/10/09 10:48:58;;;;;;;29.20;13.18;;;;;;;;;;4995239;28;20029;-82
2021/10/09 10:57:01;;;;;;;20.25;12.00;;;;;;;;;;5005965;28;20025;-80
2021/10/09 10:59:54;;;;;;;21.75;11.75;;;;;;;;;;4978351;28;20022;-81
2021/10/09 11:02:37;;;;;;;27.20;12.02;;;;;;;;;;4992952;28;20057;-78
2021/10/09 11:05:06;;;;;;;23.00;12.32;;;;;;;;;;4978398;28;20036;-78
2021/10/09 11:07:39;;;;;;;21.42;11.95;;;;;;;;;;4987381;28;20034;-80
2021/10/09 11:10:07;;;;;;;27.50;12.90;;;;;;;;;;4987706;28;20132;-77
2021/10/09 11:12:35;;;;;;;20.27;12.38;;;;;;;;;;4998908;28;20041;-79
2021/10/09 11:15:17;;;;;;;22.33;12.13;;;;;;;;;;5006126;28;20034;-80
2021/10/09 11:17:46;;;;;;;21.05;13.23;;;;;;;;;;5002822;28;20506;-78
2021/10/09 11:20:20;;;;;;;20.55;12.02;;;;;;;;;;5000210;28;20112;-80
2021/10/09 11:22:49;;;;;;;18.55;11.52;;;;;;;;;;5004835;28;20027;-80
2021/10/09 11:25:34;;;;;;;18.83;10.55;;;;;;;;;;5004809;28;20032;-80
2021/10/09 11:28:03;;;;;;;17.63;10.07;;;;;;;;;;5001031;28;20069;-79
2021/10/09 11:30:32;;;;;;;21.70;11.25;;;;;;;;;;4997139;28;20026;-79
2021/10/09 11:33:00;;;;;;;16.92;10.27;;;;;;;;;;5003280;28;20509;-80
2021/10/09 11:35:38;;;;;;;17.15;10.80;;;;;;;;;;5004069;28;20014;-79
2021/10/09 11:38:16;;;;;;;20.20;10.55;;;;;;;;;;4998509;28;20049;-79
2021/10/09 11:40:53;;;;;;;15.57;10.27;;;;;;;;;;5001386;28;20053;-79
2021/10/09 11:43:32;;;;;;;20.00;10.05;;;;;;;;;;5006933;28;20210;-80
2021/10/09 11:46:25;;;;;;;15.13;9.65;;;;;;;;;;5007590;28;20029;-80
2021/10/09 11:56:58;;;;;;;16.92;9.35;;;;;;;;;;5002691;28;20088;-77
2021/10/09 11:59:43;;;;;;;20.17;9.50;;;;;;;;;;4982135;28;20437;-80
2021/10/09 12:02:08;;;;;;;14.77;9.32;;;;;;;;;;4996377;28;20032;-79
2021/10/09 12:04:35;;;;;;;17.08;9.00;;;;;;;;;;4996675;28;20117;-80
2021/10/09 12:07:08;;;;;;;19.92;10.18;;;;;;;;;;5001948;28;20038;-79
2021/10/09 12:09:45;;;;;;;19.17;9.75;;;;;;;;;;5000770;28;20506;-79
2021/10/09 12:12:21;;;;;;;14.82;9.40;;;;;;;;;;4994049;28;20038;-79
2021/10/09 12:14:54;;;;;;;17.70;10.32;;;;;;;;;;4995710;28;20045;-78
2021/10/09 12:17:22;;;;;;;16.70;11.25;;;;;;;;;;4996528;28;20385;-81
2021/10/09 12:20:05;;;;;;;16.25;10.52;;;;;;;;;;4984749;28;20026;-79
2021/10/09 12:23:06;;;;;;;19.40;11.05;;;;;;;;;;5001657;28;20034;-79
2021/10/09 12:25:30;;;;;;;17.70;9.80;;;;;;;;;;5001606;28;20041;-78
2021/10/09 12:27:58;;;;;;;19.30;10.48;;;;;;;;;;4999365;28;20022;-80
2021/10/09 12:30:45;;;;;;;16.73;10.05;;;;;;;;;;5000619;28;20038;-80
2021/10/09 12:33:31;;;;;;;16.42;9.52;;;;;;;;;;4987446;28;20033;-80
2021/10/09 12:35:58;;;;;;;16.98;10.68;;;;;;;;;;4988316;28;20034;-77
2021/10/09 12:38:38;;;;;;;14.57;9.65;;;;;;;;;;4989757;28;20022;-79
2021/10/09 12:41:15;;;;;;;18.38;10.40;;;;;;;;;;4999071;28;20030;-80
2021/10/09 12:43:40;;;;;;;24.70;11.82;;;;;;;;;;4999604;28;20026;-78
2021/10/09 12:46:06;;;;;;;20.10;10.75;;;;;;;;;;4987254;28;20180;-78
2021/10/09 12:48:34;;;;;;;15.63;10.13;;;;;;;;;;4990497;28;20310;-80
2021/10/09 12:51:01;;;;;;;17.63;9.48;;;;;;;;;;4988878;28;20037;-80
2021/10/09 12:53:27;;;;;;;16.63;9.52;;;;;;;;;;4983924;28;20056;-80
2021/10/09 12:55:55;;;;;;;16.50;9.02;;;;;;;;;;4987302;28;20022;-78
2021/10/09 12:58:23;;;;;;;17.20;9.73;;;;;;;;;;4999635;28;20042;-79
2021/10/09 13:00:49;;;;;;;14.93;9.07;;;;;;;;;;4998567;28;20102;-80
2021/10/09 13:03:14;;;;;;;21.83;10.40;;;;;;;;;;5005731;28;20022;-80
2021/10/09 13:05:39;;;;;;;15.82;9.55;;;;;;;;;;5000378;28;20205;-81
2021/10/09 13:08:05;;;;;;;13.02;8.43;;;;;;;;;;4998889;28;20083;-80
2021/10/09 13:10:40;;;;;;;15.57;8.23;;;;;;;;;;4980734;28;20022;-79
2021/10/09 13:13:05;;;;;;;13.20;8.10;;;;;;;;;;4995580;28;20030;-81
2021/10/09 13:15:33;;;;;;;12.68;8.52;;;;;;;;;;5000127;28;20069;-79
2021/10/09 13:17:58;;;;;;;13.00;8.38;;;;;;;;;;5001900;28;20056;-78
2021/10/09 13:20:30;;;;;;;13.90;8.85;;;;;;;;;;4980996;28;20026;-78
2021/10/09 13:22:58;;;;;;;18.55;8.80;;;;;;;;;;4976220;28;20027;-80
2021/10/09 13:25:23;;;;;;;13.43;8.53;;;;;;;;;;4998798;28;20165;-80
2021/10/09 13:27:49;;;;;;;15.65;9.25;;;;;;;;;;4995454;28;20754;-78
2021/10/09 13:30:17;;;;;;;14.85;9.82;;;;;;;;;;4993941;28;20027;-80
2021/10/09 13:32:43;;;;;;;16.88;9.90;;;;;;;;;;4996006;28;20026;-81
2021/10/09 13:35:08;;;;;;;14.52;8.93;;;;;;;;;;4993912;28;20054;-78
2021/10/09 13:37:38;;;;;;;24.55;12.63;;;;;;;;;;4982858;28;20034;-79
2021/10/09 13:40:04;;;;;;;45.42;20.80;;;;;;;;;;5000439;28;20057;-78
2021/10/09 13:42:32;;;;;;;31.75;15.43;;;;;;;;;;4979302;28;20022;-78
2021/10/09 13:45:03;;;;;;;18.95;10.68;;;;;;;;;;4993457;28;20026;-79
2021/10/09 13:47:28;;;;;;;13.30;9.23;;;;;;;;;;4999861;28;20026;-78
2021/10/09 13:49:54;;;;;;;13.35;8.13;;;;;;;;;;5004395;28;20438;-81
2021/10/09 13:52:19;;;;;;;16.95;8.27;;;;;;;;;;4998660;28;20052;-79
2021/10/09 13:54:44;;;;;;;14.95;8.40;;;;;;;;;;4985330;28;20539;-79
2021/10/09 13:57:10;;;;;;;16.75;8.77;;;;;;;;;;4992073;28;20042;-80
2021/10/09 13:59:37;;;;;;;13.05;7.72;;;;;;;;;;4978611;28;20379;-81
2021/10/09 14:02:03;;;;;;;14.88;7.30;;;;;;;;;;4992643;28;20394;-80
2021/10/09 14:04:28;;;;;;;11.63;7.60;;;;;;;;;;4992564;28;20431;-79
2021/10/09 14:06:54;;;;;;;10.70;7.90;;;;;;;;;;4982753;28;20053;-80
2021/10/09 14:09:21;;;;;;;14.18;8.07;;;;;;;;;;4980729;28;20026;-80
2021/10/09 14:11:47;;;;;;;15.98;9.23;;;;;;;;;;4981247;28;20041;-81
2021/10/09 14:14:12;;;;;;;11.32;7.32;;;;;;;;;;4986619;28;20041;-80
2021/10/09 14:16:38;;;;;;;12.02;7.53;;;;;;;;;;4997414;28;20022;-80
2021/10/09 14:19:05;;;;;;;9.23;7.03;;;;;;;;;;4995386;28;20164;-79
2021/10/09 14:21:33;;;;;;;12.45;7.97;;;;;;;;;;4995300;28;20367;-80
2021/10/09 14:23:59;;;;;;;53.75;23.05;;;;;;;;;;4998898;28;20085;-78
2021/10/09 14:26:24;;;;;;;22.23;11.52;;;;;;;;;;4994679;28;20449;-79
2021/10/09 14:28:50;;;;;;;14.73;8.55;;;;;;;;;;4993767;28;20527;-79
2021/10/09 14:31:15;;;;;;;14.77;8.00;;;;;;;;;;4993716;28;20026;-79
2021/10/09 14:33:41;;;;;;;15.40;7.53;;;;;;;;;;4985171;28;20025;-79
2021/10/09 14:36:06;;;;;;;11.93;7.85;;;;;;;;;;4981900;28;20592;-81
2021/10/09 14:38:32;;;;;;;17.15;7.75;;;;;;;;;;5000405;28;20523;-80
2021/10/09 14:40:59;;;;;;;16.33;8.32;;;;;;;;;;5000803;28;20026;-81
2021/10/09 14:43:25;;;;;;;16.00;8.07;;;;;;;;;;4980751;28;20030;-80
2021/10/09 14:45:54;;;;;;;15.15;8.02;;;;;;;;;;4997036;28;20435;-80
2021/10/09 14:48:26;;;;;;;;;;;;;;;;;;4991176;28;20061;-80
2021/10/09 14:51:04;;;;;;;18.38;8.98;;;;;;;;;;4977985;28;19921;-81
2021/10/09 14:56:28;;;;;;;50.25;23.17;;;;;;;;;;4997600;28;20109;-79
2021/10/09 15:20:09;;;;;;;19.13;8.38;;;;;;;;;;4999437;28;20662;-83
2021/10/09 15:22:37;;;;;;;17.38;8.70;;;;;;;;;;4997431;28;20068;-80
2021/10/09 15:25:04;;;;;;;12.45;8.02;;;;;;;;;;4993257;28;20069;-80
2021/10/09 15:27:29;;;;;;;15.90;8.48;;;;;;;;;;4994765;28;20031;-80
2021/10/09 15:29:56;;;;;;;14.90;9.30;;;;;;;;;;4996282;28;20033;-78
2021/10/09 15:32:21;;;;;;;13.88;8.93;;;;;;;;;;4998946;28;20022;-80
2021/10/09 15:34:47;;;;;;;13.98;8.25;;;;;;;;;;4998017;28;20034;-79
2021/10/09 15:37:12;;;;;;;11.98;8.07;;;;;;;;;;4978583;28;20040;-78
2021/10/09 15:39:38;;;;;;;15.35;9.15;;;;;;;;;;4978045;28;20026;-81
2021/10/09 15:42:05;;;;;;;12.35;8.15;;;;;;;;;;4998178;28;20401;-81
2021/10/09 15:44:31;;;;;;;16.67;8.68;;;;;;;;;;4975178;28;20049;-78
2021/10/09 15:46:57;;;;;;;15.90;8.30;;;;;;;;;;4991148;28;20070;-79
2021/10/09 15:49:25;;;;;;;11.75;8.13;;;;;;;;;;4983620;28;20033;-80
2021/10/09 15:51:51;;;;;;;18.30;9.37;;;;;;;;;;4981488;28;20076;-79
2021/10/09 15:54:19;;;;;;;17.73;9.70;;;;;;;;;;4980265;28;20022;-78
2021/10/09 15:56:45;;;;;;;14.93;8.77;;;;;;;;;;4984684;28;20056;-79
2021/10/09 15:59:10;;;;;;;15.80;9.07;;;;;;;;;;4981584;28;20034;-78
2021/10/09 16:01:35;;;;;;;14.63;9.02;;;;;;;;;;4998879;28;20084;-80
2021/10/09 16:04:02;;;;;;;16.25;9.75;;;;;;;;;;4998397;28;20616;-80
2021/10/09 16:06:28;;;;;;;15.13;8.73;;;;;;;;;;5001036;28;20121;-81
2021/10/09 16:08:53;;;;;;;16.17;10.25;;;;;;;;;;4997385;28;20113;-79
2021/10/09 16:11:22;;;;;;;19.30;11.05;;;;;;;;;;4996082;28;20030;-80
2021/10/09 16:13:49;;;;;;;16.90;9.63;;;;;;;;;;4994161;28;20061;-78
2021/10/09 16:16:17;;;;;;;21.60;13.70;;;;;;;;;;4981888;28;20822;-81
2021/10/09 16:18:45;;;;;;;18.25;11.05;;;;;;;;;;4981534;28;20098;-79
2021/10/09 16:21:11;;;;;;;19.50;11.07;;;;;;;;;;4995200;28;20370;-80
2021/10/09 16:23:37;;;;;;;13.13;9.48;;;;;;;;;;4984709;28;20057;-79
2021/10/09 16:26:03;;;;;;;16.33;9.73;;;;;;;;;;4997182;28;20040;-81
2021/10/09 16:28:29;;;;;;;23.75;13.98;;;;;;;;;;4990882;28;20029;-80
2021/10/09 16:30:57;;;;;;;18.70;12.50;;;;;;;;;;4992711;28;20478;-79
2021/10/09 16:33:22;;;;;;;18.10;11.98;;;;;;;;;;4995923;28;20036;-79
2021/10/09 16:35:48;;;;;;;32.22;18.50;;;;;;;;;;4993394;28;20105;-81
2021/10/09 16:38:13;;;;;;;34.53;21.48;;;;;;;;;;4994504;28;20023;-80
2021/10/09 16:40:41;;;;;;;25.30;15.18;;;;;;;;;;4982068;28;20022;-79
2021/10/09 16:43:09;;;;;;;29.10;17.50;;;;;;;;;;4991124;28;20030;-80
2021/10/09 16:45:35;;;;;;;19.77;12.57;;;;;;;;;;4977417;28;20038;-79
2021/10/09 16:48:00;;;;;;;20.48;11.18;;;;;;;;;;4987941;28;20038;-81
2021/10/09 16:50:28;;;;;;;22.70;12.32;;;;;;;;;;4992110;28;20401;-81
2021/10/09 16:52:58;;;;;;;24.40;12.77;;;;;;;;;;4977588;28;20022;-80
2021/10/09 16:55:28;;;;;;;22.08;13.82;;;;;;;;;;4977693;28;20394;-79
2021/10/09 16:57:53;;;;;;;;;;;;;;;;;;4995316;28;20034;-78
2021/10/09 17:00:19;;;;;;;22.23;14.25;;;;;;;;;;4982548;28;19918;-82
2021/10/09 17:02:44;;;;;;;20.10;10.57;;;;;;;;;;4980156;28;20034;-79
2021/10/09 17:05:13;;;;;;;34.17;17.65;;;;;;;;;;4981669;28;20117;-80
2021/10/09 17:07:40;;;;;;;28.80;13.80;;;;;;;;;;4996376;28;20029;-78
2021/10/09 17:10:08;;;;;;;24.55;13.10;;;;;;;;;;4978707;28;20027;-79